createdAt,value
2023-02-02T00:04:26.788Z,9.7
2023-02-02T00:09:26.763Z,9.9
2023-02-02T00:14:26.768Z,10.4
2023-02-02T00:19:26.771Z,10.4
2023-02-02T00:24:26.784Z,11.0
2023-02-02T00:29:26.777Z,9.9
2023-02-02T00:34:26.762Z,5.3
2023-02-02T00:39:26.797Z,8.0
2023-02-02T00:44:26.855Z,5.2
2023-02-02T00:49:26.782Z,5.2
2023-02-02T00:54:26.780Z,6.6
2023-02-02T00:59:26.835Z,6.2
2023-02-02T01:04:26.780Z,6.9
2023-02-02T01:09:26.785Z,10.4
2023-02-02T01:14:26.791Z,12.8
2023-02-02T01:19:26.790Z,12.8
2023-02-02T01:24:26.797Z,9.8
2023-02-02T01:29:26.794Z,11.3
2023-02-02T01:34:26.788Z,13.9
2023-02-02T01:39:26.793Z,15.3
2023-02-02T01:44:26.791Z,10.8
2023-02-02T01:49:26.807Z,10.8
2023-02-02T01:54:26.799Z,15.0
2023-02-02T01:59:26.790Z,17.5
2023-02-02T02:04:26.800Z,16.4
2023-02-02T02:09:26.804Z,17.2
2023-02-02T02:14:26.793Z,11.5
2023-02-02T02:19:26.805Z,11.5
2023-02-02T02:24:26.795Z,16.2
2023-02-02T02:29:26.811Z,15.7
2023-02-02T02:34:26.799Z,17.9
2023-02-02T02:39:27.043Z,18.8
2023-02-02T02:44:26.821Z,16.8
2023-02-02T02:49:26.814Z,16.8
2023-02-02T02:54:26.806Z,16.7
2023-02-02T02:59:26.823Z,19.7
2023-02-02T03:04:26.784Z,17.5
2023-02-02T03:09:26.842Z,21.4
2023-02-02T03:14:26.838Z,19.5
2023-02-02T03:19:26.823Z,19.5
2023-02-02T03:24:26.827Z,12.9
2023-02-02T03:29:26.840Z,13.2
2023-02-02T03:34:26.809Z,16.4
2023-02-02T03:39:26.833Z,14.7
2023-02-02T03:44:26.825Z,10.6
2023-02-02T03:49:26.833Z,10.6
2023-02-02T03:54:26.829Z,13.9
2023-02-02T03:59:26.833Z,10.5
2023-02-02T04:04:26.840Z,13.4
2023-02-02T04:09:26.842Z,10.9
2023-02-02T04:14:26.835Z,11.2
2023-02-02T04:29:26.844Z,8.7
2023-02-02T04:34:26.823Z,11.8
2023-02-02T04:39:26.847Z,15.6
2023-02-02T04:44:26.862Z,14.2
2023-02-02T04:49:26.837Z,14.2
2023-02-02T04:54:26.934Z,12.2
2023-02-02T04:59:26.851Z,8.0
2023-02-02T05:04:26.887Z,8.4
2023-02-02T05:09:26.843Z,8.3
2023-02-02T05:14:26.863Z,8.1
2023-02-02T05:19:26.852Z,8.1
2023-02-02T05:24:26.861Z,6.1
2023-02-02T05:29:26.926Z,4.1
2023-02-02T05:34:26.894Z,16.5
2023-02-02T05:39:26.864Z,5.9
2023-02-02T05:44:26.871Z,4.5
2023-02-02T05:49:26.858Z,4.5
2023-02-02T05:54:26.876Z,2.0
2023-02-02T05:59:26.859Z,7.1
2023-02-02T06:04:26.859Z,3.0
2023-02-02T06:09:26.879Z,2.3
2023-02-02T06:14:26.854Z,3.2
2023-02-02T06:19:26.861Z,3.2
2023-02-02T06:24:26.870Z,3.0
2023-02-02T06:29:26.850Z,1.8
2023-02-02T06:34:26.861Z,4.9
2023-02-02T06:39:26.874Z,4.9
2023-02-02T06:44:26.867Z,3.4
2023-02-02T06:49:26.878Z,3.4
2023-02-02T06:54:26.876Z,5.5
2023-02-02T06:59:26.869Z,5.4
2023-02-02T07:04:26.869Z,4.4
2023-02-02T07:09:26.956Z,3.3
2023-02-02T07:14:26.852Z,2.6
2023-02-02T07:19:26.912Z,2.6
2023-02-02T07:24:26.880Z,3.5
2023-02-02T07:29:26.864Z,4.0
2023-02-02T07:34:26.881Z,3.8
2023-02-02T07:39:26.865Z,3.0
2023-02-02T07:44:26.880Z,3.6
2023-02-02T07:49:26.951Z,3.6
2023-02-02T07:54:26.878Z,3.6
2023-02-02T07:59:26.885Z,3.4
2023-02-02T08:04:26.887Z,7.0
2023-02-02T08:09:26.957Z,4.6
2023-02-02T08:14:26.902Z,3.7
2023-02-02T08:19:26.948Z,3.7
2023-02-02T08:24:26.880Z,7.6
2023-02-02T08:29:26.956Z,5.3
2023-02-02T08:34:26.881Z,5.3
2023-02-02T08:39:26.961Z,4.3
2023-02-02T08:44:43.026Z,5.6
2023-02-02T08:49:26.965Z,5.6
2023-02-02T08:54:26.889Z,6.3
2023-02-02T08:59:27.043Z,8.2
2023-02-02T09:04:26.901Z,6.8
2023-02-02T09:09:26.874Z,6.1
2023-02-02T09:14:26.907Z,5.6
2023-02-02T09:19:26.959Z,5.6
2023-02-02T09:24:26.915Z,4.7
2023-02-02T09:29:26.957Z,5.3
2023-02-02T09:34:26.916Z,4.8
2023-02-02T09:39:26.940Z,4.8
2023-02-02T09:44:26.915Z,6.5
2023-02-02T09:49:27.017Z,6.5
2023-02-02T09:54:26.919Z,5.2
2023-02-02T09:59:27.011Z,5.3
2023-02-02T10:04:26.935Z,4.5
2023-02-02T10:09:27.025Z,4.8
2023-02-02T10:14:26.955Z,7.2
2023-02-02T10:19:27.023Z,7.2
2023-02-02T10:24:26.935Z,7.2
2023-02-02T10:29:28.123Z,3.3
2023-02-02T10:34:26.941Z,6.9
2023-02-02T10:39:26.931Z,2.7
2023-02-02T10:44:26.935Z,5.3
2023-02-02T10:49:27.081Z,5.3
2023-02-02T10:54:26.949Z,5.1
2023-02-02T10:59:27.016Z,3.1
2023-02-02T11:04:26.923Z,1.4
2023-02-02T11:09:27.008Z,5.1
2023-02-02T11:14:58.417Z,2.6
2023-02-02T11:20:32.267Z,2.6
2023-02-02T11:24:26.924Z,3.9
2023-02-02T11:29:27.017Z,3.0
2023-02-02T11:34:26.951Z,6.3
2023-02-02T11:39:27.028Z,3.4
2023-02-02T11:44:26.953Z,2.4
2023-02-02T11:49:27.012Z,2.4
2023-02-02T11:54:26.978Z,3.3
2023-02-02T11:59:27.018Z,2.0
2023-02-02T12:04:27.040Z,2.5
2023-02-02T12:09:27.015Z,1.6
2023-02-02T12:14:26.952Z,1.5
2023-02-02T12:19:27.049Z,1.5
2023-02-02T12:24:26.963Z,3.1
2023-02-02T12:29:27.052Z,2.3
2023-02-02T12:34:26.952Z,2.1
2023-02-02T12:39:27.050Z,1.9
2023-02-02T12:44:26.943Z,3.0
2023-02-02T12:49:27.050Z,3.0
2023-02-02T12:54:34.564Z,2.0
2023-02-02T12:59:27.060Z,3.2
2023-02-02T13:04:58.351Z,3.0
2023-02-02T13:09:27.079Z,2.4
2023-02-02T13:14:26.954Z,1.2
2023-02-02T13:19:27.068Z,1.2
2023-02-02T13:24:26.953Z,3.2
2023-02-02T13:29:27.072Z,2.9
2023-02-02T13:34:27.142Z,4.0
2023-02-02T13:39:27.091Z,2.3
2023-02-02T13:44:26.996Z,5.5
2023-02-02T13:49:27.050Z,5.5
2023-02-02T13:54:26.958Z,2.0
2023-02-02T13:59:27.119Z,6.3
2023-02-02T14:04:26.971Z,3.6
2023-02-02T14:09:27.124Z,5.1
2023-02-02T14:14:26.976Z,2.7
2023-02-02T14:19:27.025Z,2.7
2023-02-02T14:24:26.983Z,4.2
2023-02-02T14:29:27.159Z,2.9
2023-02-02T14:34:26.995Z,5.2
2023-02-02T14:39:27.069Z,4.5
2023-02-02T14:44:26.980Z,8.1
2023-02-02T14:49:27.089Z,8.1
2023-02-02T14:54:26.994Z,7.4
2023-02-02T14:59:27.156Z,5.4
2023-02-02T15:04:27.020Z,4.8
2023-02-02T15:09:27.098Z,4.7
2023-02-02T15:14:27.003Z,6.0
2023-02-02T15:19:27.131Z,6.0
2023-02-02T15:24:27.031Z,5.3
2023-02-02T15:29:27.098Z,3.5
2023-02-02T15:34:27.002Z,3.7
2023-02-02T15:39:27.101Z,6.0
2023-02-02T15:44:27.003Z,2.9
2023-02-02T15:49:34.374Z,2.9
2023-02-02T15:54:27.028Z,3.2
2023-02-02T15:59:27.113Z,4.3
2023-02-02T16:04:27.073Z,3.6
2023-02-02T16:09:27.191Z,4.1
2023-02-02T16:14:27.006Z,3.4
2023-02-02T16:19:27.069Z,3.4
2023-02-02T16:24:27.010Z,3.8
2023-02-02T16:29:27.104Z,2.9
2023-02-02T16:34:27.000Z,5.1
2023-02-02T16:39:27.103Z,3.6
2023-02-02T16:44:27.014Z,3.6
2023-02-02T16:49:27.086Z,3.6
2023-02-02T16:54:27.019Z,4.9
2023-02-02T16:59:27.083Z,4.2
2023-02-02T17:04:27.026Z,2.8
2023-02-02T17:09:27.084Z,2.5
2023-02-02T17:14:27.023Z,1.8
2023-02-02T17:19:27.070Z,1.8
2023-02-02T17:24:27.011Z,2.4
2023-02-02T17:29:27.104Z,2.3
2023-02-02T17:34:27.065Z,1.2
2023-02-02T17:39:27.073Z,1.5
2023-02-02T17:44:27.051Z,1.3
2023-02-02T17:49:27.071Z,1.3
2023-02-02T17:54:27.027Z,1.7
2023-02-02T17:59:27.073Z,1.8
2023-02-02T18:04:27.040Z,2.2
2023-02-02T18:09:27.086Z,1.9
2023-02-02T18:14:27.077Z,4.1
2023-02-02T18:19:27.068Z,4.1
2023-02-02T18:24:27.030Z,6.9
2023-02-02T18:29:27.126Z,4.0
2023-02-02T18:34:27.013Z,2.5
2023-02-02T18:39:27.095Z,2.1
2023-02-02T18:44:27.025Z,3.0
2023-02-02T18:49:27.104Z,3.0
2023-02-02T18:54:27.031Z,2.4
2023-02-02T18:59:27.012Z,3.6
2023-02-02T19:04:27.032Z,2.9
2023-02-02T19:09:27.094Z,2.6
2023-02-02T19:14:27.035Z,3.3
2023-02-02T19:19:27.090Z,3.3
2023-02-02T19:24:27.099Z,3.2
2023-02-02T19:29:27.095Z,3.5
2023-02-02T19:34:27.034Z,4.7
2023-02-02T19:39:27.087Z,2.8
2023-02-02T19:44:27.028Z,3.2
2023-02-02T19:54:27.039Z,3.2
2023-02-02T19:59:27.086Z,3.7
2023-02-02T20:04:27.039Z,3.3
2023-02-02T20:09:28.711Z,1.7
2023-02-02T20:14:27.024Z,3.7
2023-02-02T20:19:27.091Z,3.7
2023-02-02T20:24:27.024Z,3.3
2023-02-02T20:29:27.086Z,5.0
2023-02-02T20:34:27.073Z,6.8
2023-02-02T20:39:27.125Z,3.5
2023-02-02T20:44:27.035Z,2.5
2023-02-02T20:49:27.093Z,2.5
2023-02-02T20:54:27.053Z,3.2
2023-02-02T20:59:27.085Z,5.2
2023-02-02T21:04:27.040Z,6.0
2023-02-02T21:09:27.108Z,4.0
2023-02-02T21:14:27.058Z,5.4
2023-02-02T21:19:27.096Z,5.4
2023-02-02T21:24:27.094Z,4.2
2023-02-02T21:29:27.129Z,5.2
2023-02-02T21:34:27.035Z,2.9
2023-02-02T21:39:27.101Z,6.8
2023-02-02T21:44:27.062Z,5.8
2023-02-02T21:49:27.137Z,5.8
2023-02-02T21:54:27.030Z,3.7
2023-02-02T21:59:27.124Z,4.1
2023-02-02T22:04:27.042Z,4.2
2023-02-02T22:09:27.111Z,7.6
2023-02-02T22:14:27.071Z,7.4
2023-02-02T22:19:27.155Z,7.4
2023-02-02T22:24:27.024Z,5.4
2023-02-02T22:34:27.035Z,2.9
2023-02-02T22:39:27.118Z,4.6
2023-02-02T22:44:27.046Z,3.4
2023-02-02T22:49:27.113Z,3.4
2023-02-02T22:54:27.043Z,4.1
2023-02-02T22:59:27.137Z,2.8
2023-02-02T23:04:27.047Z,3.7
2023-02-02T23:09:27.125Z,4.1
2023-02-02T23:14:27.055Z,3.3
2023-02-02T23:19:27.113Z,3.3
2023-02-02T23:24:27.053Z,4.2
2023-02-02T23:29:27.114Z,4.1
2023-02-02T23:34:27.055Z,3.2
2023-02-02T23:39:27.116Z,3.7
2023-02-02T23:44:27.072Z,2.1
2023-02-02T23:49:27.146Z,2.1
2023-02-02T23:54:27.091Z,4.5
2023-02-02T23:59:27.114Z,4.2
